sensor_id;sensor_type;location;lat;lon;timestamp;pressure;altitude;pressure_sealevel;temperature;humidity
69842;BME280;57138;51.326;-0.068;2022-08-19T00:01:54;99580.59;;;19.18;70.87
69842;BME280;57138;51.326;-0.068;2022-08-19T00:04:23;99599.31;;;19.20;71.87
69842;BME280;57138;51.326;-0.068;2022-08-19T00:06:49;99591.19;;;19.20;71.34
69842;BME280;57138;51.326;-0.068;2022-08-19T00:09:17;99586.56;;;19.20;71.40
69842;BME280;57138;51.326;-0.068;2022-08-19T00:11:44;99586.81;;;19.19;71.96
69842;BME280;57138;51.326;-0.068;2022-08-19T00:14:13;99587.34;;;19.16;71.37
69842;BME280;57138;51.326;-0.068;2022-08-19T00:16:41;99579.75;;;19.18;72.11
69842;BME280;57138;51.326;-0.068;2022-08-19T00:19:08;99585.19;;;19.18;72.15
69842;BME280;57138;51.326;-0.068;2022-08-19T00:21:37;99585.44;;;19.16;72.50
69842;BME280;57138;51.326;-0.068;2022-08-19T00:24:06;99581.94;;;19.16;72.27
69842;BME280;57138;51.326;-0.068;2022-08-19T00:26:32;99586.03;;;19.18;72.33
69842;BME280;57138;51.326;-0.068;2022-08-19T00:28:58;99586.56;;;19.20;72.72
69842;BME280;57138;51.326;-0.068;2022-08-19T00:31:24;99549.66;;;19.09;72.43
69842;BME280;57138;51.326;-0.068;2022-08-19T00:33:50;99571.16;;;19.26;72.99
69842;BME280;57138;51.326;-0.068;2022-08-19T00:36:16;99565.69;;;19.21;72.94
69842;BME280;57138;51.326;-0.068;2022-08-19T00:38:46;99568.97;;;19.23;73.43
69842;BME280;57138;51.326;-0.068;2022-08-19T00:41:14;99569.53;;;19.25;72.86
69842;BME280;57138;51.326;-0.068;2022-08-19T00:43:40;99563.28;;;19.25;73.22
69842;BME280;57138;51.326;-0.068;2022-08-19T00:46:07;99560.84;;;19.23;73.57
69842;BME280;57138;51.326;-0.068;2022-08-19T00:48:34;99561.91;;;19.22;73.96
69842;BME280;57138;51.326;-0.068;2022-08-19T00:51:02;99564.63;;;19.22;73.44
69842;BME280;57138;51.326;-0.068;2022-08-19T00:53:29;99562.97;;;19.21;74.31
69842;BME280;57138;51.326;-0.068;2022-08-19T00:56:00;99566.28;;;19.23;73.77
69842;BME280;57138;51.326;-0.068;2022-08-19T00:58:29;99564.63;;;19.22;74.11
69842;BME280;57138;51.326;-0.068;2022-08-19T01:00:55;99566.28;;;19.23;74.42
69842;BME280;57138;51.326;-0.068;2022-08-19T01:03:21;99562.97;;;19.21;74.00
69842;BME280;57138;51.326;-0.068;2022-08-19T01:05:49;99560.78;;;19.18;74.41
69842;BME280;57138;51.326;-0.068;2022-08-19T01:08:16;99571.13;;;19.21;74.47
69842;BME280;57138;51.326;-0.068;2022-08-19T01:10:45;99566.78;;;19.20;74.30
69842;BME280;57138;51.326;-0.068;2022-08-19T01:13:14;99562.44;;;19.19;74.62
69842;BME280;57138;51.326;-0.068;2022-08-19T01:15:44;99561.06;;;19.16;74.56
69842;BME280;57138;51.326;-0.068;2022-08-19T01:18:13;99552.09;;;19.11;74.58
69842;BME280;57138;51.326;-0.068;2022-08-19T01:20:41;99555.06;;;19.09;74.54
69842;BME280;57138;51.326;-0.068;2022-08-19T01:23:06;99562.97;;;19.16;75.13
69842;BME280;57138;51.326;-0.068;2022-08-19T01:25:45;99564.03;;;19.15;74.46
69842;BME280;57138;51.326;-0.068;2022-08-19T01:28:20;99559.44;;;19.15;74.72
69842;BME280;57138;51.326;-0.068;2022-08-19T01:30:46;99556.16;;;19.13;74.71
69842;BME280;57138;51.326;-0.068;2022-08-19T01:33:12;99562.09;;;19.10;75.29
69842;BME280;57138;51.326;-0.068;2022-08-19T01:35:38;99547.72;;;19.04;75.58
69842;BME280;57138;51.326;-0.068;2022-08-19T01:38:10;99536.84;;;18.99;75.15
69842;BME280;57138;51.326;-0.068;2022-08-19T01:40:44;99542.00;;;19.01;74.98
69842;BME280;57138;51.326;-0.068;2022-08-19T01:43:09;99550.97;;;19.07;75.32
69842;BME280;57138;51.326;-0.068;2022-08-19T01:45:35;99545.81;;;19.05;75.19
69842;BME280;57138;51.326;-0.068;2022-08-19T01:48:01;99540.13;;;19.01;75.30
69842;BME280;57138;51.326;-0.068;2022-08-19T01:50:27;99549.94;;;19.13;75.74
69842;BME280;57138;51.326;-0.068;2022-08-19T01:52:53;99533.88;;;19.01;75.36
69842;BME280;57138;51.326;-0.068;2022-08-19T01:55:20;99544.75;;;19.06;75.52
69842;BME280;57138;51.326;-0.068;2022-08-19T01:57:52;99540.63;;;18.98;75.33
69842;BME280;57138;51.326;-0.068;2022-08-19T02:00:24;99538.97;;;18.92;76.05
69842;BME280;57138;51.326;-0.068;2022-08-19T02:02:56;99537.66;;;18.95;76.11
69842;BME280;57138;51.326;-0.068;2022-08-19T02:05:23;99544.97;;;18.99;75.58
69842;BME280;57138;51.326;-0.068;2022-08-19T02:07:49;99532.75;;;18.92;76.12
69842;BME280;57138;51.326;-0.068;2022-08-19T02:10:18;99536.81;;;18.94;76.07
69842;BME280;57138;51.326;-0.068;2022-08-19T02:12:44;99542.50;;;18.98;75.88
69842;BME280;57138;51.326;-0.068;2022-08-19T02:15:10;99536.81;;;18.94;76.45
69842;BME280;57138;51.326;-0.068;2022-08-19T02:17:36;99520.56;;;18.94;76.21
69842;BME280;57138;51.326;-0.068;2022-08-19T02:20:02;99531.69;;;18.98;76.47
69842;BME280;57138;51.326;-0.068;2022-08-19T02:22:27;99538.75;;;18.99;76.32
69842;BME280;57138;51.326;-0.068;2022-08-19T02:24:54;99540.13;;;19.01;76.32
69842;BME280;57138;51.326;-0.068;2022-08-19T02:27:20;99544.16;;;18.99;77.01
69842;BME280;57138;51.326;-0.068;2022-08-19T02:29:47;99541.72;;;18.97;76.69
69842;BME280;57138;51.326;-0.068;2022-08-19T02:32:13;99541.13;;;18.90;76.77
69842;BME280;57138;51.326;-0.068;2022-08-19T02:34:39;99540.63;;;18.93;76.55
69842;BME280;57138;51.326;-0.068;2022-08-19T02:37:05;99552.53;;;18.97;76.81
69842;BME280;57138;51.326;-0.068;2022-08-19T02:39:30;99556.31;;;18.96;76.72
69842;BME280;57138;51.326;-0.068;2022-08-19T02:41:56;99549.84;;;18.97;76.83
69842;BME280;57138;51.326;-0.068;2022-08-19T02:44:24;99543.59;;;18.92;77.08
69842;BME280;57138;51.326;-0.068;2022-08-19T02:46:50;99529.78;;;18.93;76.71
69842;BME280;57138;51.326;-0.068;2022-08-19T02:49:15;99546.59;;;19.00;77.09
69842;BME280;57138;51.326;-0.068;2022-08-19T02:51:43;99540.63;;;18.98;77.23
69842;BME280;57138;51.326;-0.068;2022-08-19T02:54:11;99530.84;;;18.92;76.74
69842;BME280;57138;51.326;-0.068;2022-08-19T02:56:39;99544.69;;;19.01;76.70
69842;BME280;57138;51.326;-0.068;2022-08-19T02:59:06;99546.59;;;19.00;77.41
69842;BME280;57138;51.326;-0.068;2022-08-19T03:01:38;99544.94;;;18.94;77.06
69842;BME280;57138;51.326;-0.068;2022-08-19T03:04:10;99554.72;;;18.95;77.38
69842;BME280;57138;51.326;-0.068;2022-08-19T03:06:38;99565.53;;;18.95;76.98
69842;BME280;57138;51.326;-0.068;2022-08-19T03:09:04;99564.16;;;18.93;77.07
69842;BME280;57138;51.326;-0.068;2022-08-19T03:11:31;99554.94;;;18.89;77.22
69842;BME280;57138;51.326;-0.068;2022-08-19T03:13:58;99563.91;;;18.94;77.11
69842;BME280;57138;51.326;-0.068;2022-08-19T03:16:25;99566.59;;;18.94;77.09
69842;BME280;57138;51.326;-0.068;2022-08-19T03:18:52;99564.72;;;18.95;77.05
69842;BME280;57138;51.326;-0.068;2022-08-19T03:21:20;99551.44;;;18.93;77.20
69842;BME280;57138;51.326;-0.068;2022-08-19T03:23:46;99558.47;;;18.94;77.73
69842;BME280;57138;51.326;-0.068;2022-08-19T03:26:12;99561.44;;;18.93;77.65
69842;BME280;57138;51.326;-0.068;2022-08-19T03:28:41;99546.22;;;18.86;77.71
69842;BME280;57138;51.326;-0.068;2022-08-19T03:31:12;99549.53;;;18.89;78.04
69842;BME280;57138;51.326;-0.068;2022-08-19T03:33:39;99565.53;;;18.95;77.88
69842;BME280;57138;51.326;-0.068;2022-08-19T03:36:09;99560.63;;;18.92;77.88
69842;BME280;57138;51.326;-0.068;2022-08-19T03:38:47;99529.91;;;18.76;78.50
69842;BME280;57138;51.326;-0.068;2022-08-19T03:41:19;99542.34;;;18.77;78.74
69842;BME280;57138;51.326;-0.068;2022-08-19T03:43:45;99561.69;;;18.86;78.85
69842;BME280;57138;51.326;-0.068;2022-08-19T03:46:16;99556.19;;;18.81;79.27
69842;BME280;57138;51.326;-0.068;2022-08-19T03:48:45;99557.25;;;18.80;78.92
69842;BME280;57138;51.326;-0.068;2022-08-19T03:51:19;99552.66;;;18.80;79.45
69842;BME280;57138;51.326;-0.068;2022-08-19T03:53:46;99548.53;;;18.73;79.19
69842;BME280;57138;51.326;-0.068;2022-08-19T03:56:11;99562.94;;;18.78;79.37
69842;BME280;57138;51.326;-0.068;2022-08-19T03:58:39;99562.13;;;18.78;79.31
69842;BME280;57138;51.326;-0.068;2022-08-19T04:01:09;99566.72;;;18.77;79.50
69842;BME280;57138;51.326;-0.068;2022-08-19T04:03:35;99552.84;;;18.68;79.80
69842;BME280;57138;51.326;-0.068;2022-08-19T04:06:15;99551.25;;;18.73;80.29
69842;BME280;57138;51.326;-0.068;2022-08-19T04:08:42;99556.13;;;18.76;79.44
69842;BME280;57138;51.326;-0.068;2022-08-19T04:11:10;99559.38;;;18.73;79.44
69842;BME280;57138;51.326;-0.068;2022-08-19T04:13:35;99559.44;;;18.78;79.61
69842;BME280;57138;51.326;-0.068;2022-08-19T04:16:01;99551.25;;;18.73;79.97
69842;BME280;57138;51.326;-0.068;2022-08-19T04:18:26;99559.44;;;18.78;79.39
69842;BME280;57138;51.326;-0.068;2022-08-19T04:20:55;99556.13;;;18.76;79.87
69842;BME280;57138;51.326;-0.068;2022-08-19T04:23:20;99567.28;;;18.79;79.83
69842;BME280;57138;51.326;-0.068;2022-08-19T04:25:46;99558.31;;;18.74;79.63
69842;BME280;57138;51.326;-0.068;2022-08-19T04:28:12;99568.91;;;18.80;80.08
69842;BME280;57138;51.326;-0.068;2022-08-19T04:30:44;99565.94;;;18.82;79.96
69842;BME280;57138;51.326;-0.068;2022-08-19T04:33:11;99557.78;;;18.77;80.21
69842;BME280;57138;51.326;-0.068;2022-08-19T04:35:41;99566.47;;;18.79;80.02
69842;BME280;57138;51.326;-0.068;2022-08-19T04:38:08;99568.09;;;18.80;80.23
69842;BME280;57138;51.326;-0.068;2022-08-19T04:40:45;99558.06;;;18.80;79.69
69842;BME280;57138;51.326;-0.068;2022-08-19T04:43:30;99568.91;;;18.80;80.34
69842;BME280;57138;51.326;-0.068;2022-08-19T04:45:57;99572.44;;;18.81;79.86
69842;BME280;57138;51.326;-0.068;2022-08-19T04:48:23;99565.88;;;18.72;80.25
69842;BME280;57138;51.326;-0.068;2022-08-19T04:50:53;99568.06;;;18.75;80.43
69842;BME280;57138;51.326;-0.068;2022-08-19T04:53:27;99577.28;;;18.79;80.18
69842;BME280;57138;51.326;-0.068;2022-08-19T04:55:56;99581.59;;;18.75;80.34
69842;BME280;57138;51.326;-0.068;2022-08-19T04:58:27;99579.97;;;18.74;80.64
69842;BME280;57138;51.326;-0.068;2022-08-19T05:00:53;99591.41;;;18.81;80.66
69842;BME280;57138;51.326;-0.068;2022-08-19T05:03:19;99587.59;;;18.82;80.07
69842;BME280;57138;51.326;-0.068;2022-08-19T05:05:46;99581.91;;;18.78;79.86
69842;BME280;57138;51.326;-0.068;2022-08-19T05:08:14;99597.38;;;18.83;80.50
69842;BME280;57138;51.326;-0.068;2022-08-19T05:10:44;99569.66;;;18.71;80.61
69842;BME280;57138;51.326;-0.068;2022-08-19T05:13:10;99590.84;;;18.79;79.99
69842;BME280;57138;51.326;-0.068;2022-08-19T05:15:35;99600.09;;;18.83;80.60
69842;BME280;57138;51.326;-0.068;2022-08-19T05:18:01;99594.63;;;18.78;80.41
69842;BME280;57138;51.326;-0.068;2022-08-19T05:20:45;99601.72;;;18.84;80.25
69842;BME280;57138;51.326;-0.068;2022-08-19T05:23:29;99594.38;;;18.79;80.31
69842;BME280;57138;51.326;-0.068;2022-08-19T05:25:54;99615.03;;;18.85;79.74
69842;BME280;57138;51.326;-0.068;2022-08-19T05:28:20;99613.63;;;18.83;79.98
69842;BME280;57138;51.326;-0.068;2022-08-19T05:30:46;99615.84;;;18.86;79.95
69842;BME280;57138;51.326;-0.068;2022-08-19T05:33:13;99610.44;;;18.86;80.10
69842;BME280;57138;51.326;-0.068;2022-08-19T05:35:39;99610.91;;;18.83;79.81
69842;BME280;57138;51.326;-0.068;2022-08-19T05:38:06;99604.94;;;18.81;80.26
69842;BME280;57138;51.326;-0.068;2022-08-19T05:40:34;99610.97;;;18.88;80.01
69842;BME280;57138;51.326;-0.068;2022-08-19T05:43:02;99609.91;;;18.89;80.06
69842;BME280;57138;51.326;-0.068;2022-08-19T05:45:27;99617.22;;;18.89;80.03
69842;BME280;57138;51.326;-0.068;2022-08-19T05:47:53;99615.59;;;18.88;79.68
69842;BME280;57138;51.326;-0.068;2022-08-19T05:50:19;99623.47;;;18.89;79.55
69842;BME280;57138;51.326;-0.068;2022-08-19T05:52:44;99623.72;;;18.88;79.48
69842;BME280;57138;51.326;-0.068;2022-08-19T05:55:11;99626.09;;;18.84;79.46
69842;BME280;57138;51.326;-0.068;2022-08-19T05:57:37;99624.78;;;18.86;79.49
69842;BME280;57138;51.326;-0.068;2022-08-19T06:00:05;99620.63;;;18.79;78.71
69842;BME280;57138;51.326;-0.068;2022-08-19T06:02:34;99627.97;;;18.83;77.34
69842;BME280;57138;51.326;-0.068;2022-08-19T06:05:01;99628.19;;;18.77;77.10
69842;BME280;57138;51.326;-0.068;2022-08-19T06:07:27;99630.13;;;18.81;76.87
69842;BME280;57138;51.326;-0.068;2022-08-19T06:09:54;99624.41;;;18.78;75.93
69842;BME280;57138;51.326;-0.068;2022-08-19T06:12:20;99627.97;;;18.83;75.99
69842;BME280;57138;51.326;-0.068;2022-08-19T06:14:51;99621.75;;;18.83;75.57
69842;BME280;57138;51.326;-0.068;2022-08-19T06:17:20;99615.19;;;18.79;75.26
69842;BME280;57138;51.326;-0.068;2022-08-19T06:19:48;99613.59;;;18.78;75.19
69842;BME280;57138;51.326;-0.068;2022-08-19T06:22:15;99607.06;;;18.79;74.37
69842;BME280;57138;51.326;-0.068;2022-08-19T06:24:40;99621.56;;;18.90;74.54
69842;BME280;57138;51.326;-0.068;2022-08-19T06:27:06;99627.28;;;18.93;74.78
69842;BME280;57138;51.326;-0.068;2022-08-19T06:29:32;99593.75;;;18.72;74.72
69842;BME280;57138;51.326;-0.068;2022-08-19T06:32:00;99632.75;;;18.98;74.66
69842;BME280;57138;51.326;-0.068;2022-08-19T06:34:27;99631.63;;;18.94;74.48
69842;BME280;57138;51.326;-0.068;2022-08-19T06:36:55;99641.97;;;19.02;74.95
69842;BME280;57138;51.326;-0.068;2022-08-19T06:39:24;99639.84;;;19.04;74.81
69842;BME280;57138;51.326;-0.068;2022-08-19T06:41:52;99651.25;;;19.12;74.68
69842;BME280;57138;51.326;-0.068;2022-08-19T06:44:21;99635.53;;;19.09;74.61
69842;BME280;57138;51.326;-0.068;2022-08-19T06:46:46;99641.03;;;19.19;75.02
69842;BME280;57138;51.326;-0.068;2022-08-19T06:49:14;99633.97;;;19.18;74.55
69842;BME280;57138;51.326;-0.068;2022-08-19T06:51:44;99634.28;;;19.21;74.55
69842;BME280;57138;51.326;-0.068;2022-08-19T06:54:12;99641.63;;;19.26;74.51
69842;BME280;57138;51.326;-0.068;2022-08-19T06:56:38;99643.25;;;19.27;74.86
69842;BME280;57138;51.326;-0.068;2022-08-19T06:59:12;99644.09;;;19.28;74.76
69842;BME280;57138;51.326;-0.068;2022-08-19T07:01:41;99650.84;;;19.25;74.94
69842;BME280;57138;51.326;-0.068;2022-08-19T07:04:08;99650.06;;;19.30;74.73
69842;BME280;57138;51.326;-0.068;2022-08-19T07:06:35;99653.03;;;19.33;75.06
69842;BME280;57138;51.326;-0.068;2022-08-19T07:09:03;99657.66;;;19.33;74.59
69842;BME280;57138;51.326;-0.068;2022-08-19T07:11:28;99656.06;;;19.37;74.67
69842;BME280;57138;51.326;-0.068;2022-08-19T07:13:54;99653.38;;;19.37;75.02
69842;BME280;57138;51.326;-0.068;2022-08-19T07:16:23;99641.13;;;19.34;75.20
69842;BME280;57138;51.326;-0.068;2022-08-19T07:18:50;99654.78;;;19.45;74.90
69842;BME280;57138;51.326;-0.068;2022-08-19T07:21:22;99646.06;;;19.43;74.92
69842;BME280;57138;51.326;-0.068;2022-08-19T07:23:50;99656.41;;;19.51;74.99
69842;BME280;57138;51.326;-0.068;2022-08-19T07:26:25;99659.69;;;19.53;75.28
69842;BME280;57138;51.326;-0.068;2022-08-19T07:28:52;99654.81;;;19.55;75.08
69842;BME280;57138;51.326;-0.068;2022-08-19T07:31:20;99642.84;;;19.51;74.62
69842;BME280;57138;51.326;-0.068;2022-08-19T07:33:48;99659.22;;;19.66;74.76
69842;BME280;57138;51.326;-0.068;2022-08-19T07:36:17;99666.31;;;19.72;74.58
69842;BME280;57138;51.326;-0.068;2022-08-19T07:38:46;99650.59;;;19.74;74.10
69842;BME280;57138;51.326;-0.068;2022-08-19T07:41:15;99665.41;;;19.99;73.99
69842;BME280;57138;51.326;-0.068;2022-08-19T07:43:42;99645.38;;;20.10;73.73
69842;BME280;57138;51.326;-0.068;2022-08-19T07:46:09;99646.50;;;20.30;73.00
69842;BME280;57138;51.326;-0.068;2022-08-19T07:48:35;99638.66;;;20.34;72.05
69842;BME280;57138;51.326;-0.068;2022-08-19T07:51:05;99655.25;;;20.53;71.46
69842;BME280;57138;51.326;-0.068;2022-08-19T07:53:31;99652.00;;;20.56;71.12
69842;BME280;57138;51.326;-0.068;2022-08-19T07:55:58;99649.84;;;20.58;70.94
69842;BME280;57138;51.326;-0.068;2022-08-19T07:58:34;99646.59;;;20.56;70.07
69842;BME280;57138;51.326;-0.068;2022-08-19T08:01:00;99664.81;;;20.71;69.65
69842;BME280;57138;51.326;-0.068;2022-08-19T08:03:28;99662.41;;;20.74;69.64
69842;BME280;57138;51.326;-0.068;2022-08-19T08:06:13;99667.81;;;20.79;69.69
69842;BME280;57138;51.326;-0.068;2022-08-19T08:08:58;99672.72;;;20.82;69.32
69842;BME280;57138;51.326;-0.068;2022-08-19T08:11:37;99656.97;;;20.79;68.63
69842;BME280;57138;51.326;-0.068;2022-08-19T08:14:03;99666.22;;;20.83;68.43
69842;BME280;57138;51.326;-0.068;2022-08-19T08:16:33;99672.75;;;20.93;67.95
69842;BME280;57138;51.326;-0.068;2022-08-19T08:18:58;99683.06;;;20.96;67.47
69842;BME280;57138;51.326;-0.068;2022-08-19T08:21:24;99683.06;;;20.96;67.23
69842;BME280;57138;51.326;-0.068;2022-08-19T08:23:51;99683.06;;;20.96;66.33
69842;BME280;57138;51.326;-0.068;2022-08-19T08:26:23;99683.88;;;20.96;65.90
69842;BME280;57138;51.326;-0.068;2022-08-19T08:28:54;99679.78;;;20.94;65.38
69842;BME280;57138;51.326;-0.068;2022-08-19T08:31:19;99684.72;;;21.02;65.41
69842;BME280;57138;51.326;-0.068;2022-08-19T08:33:46;99686.31;;;21.08;65.84
69842;BME280;57138;51.326;-0.068;2022-08-19T08:36:13;99676.00;;;21.15;65.55
69842;BME280;57138;51.326;-0.068;2022-08-19T08:38:41;99683.88;;;21.32;65.25
69842;BME280;57138;51.326;-0.068;2022-08-19T08:43:55;99667.84;;;21.41;63.97
69842;BME280;57138;51.326;-0.068;2022-08-19T08:51:59;99675.44;;;21.39;61.75
69842;BME280;57138;51.326;-0.068;2022-08-19T08:54:41;99662.94;;;21.28;61.92
69842;BME280;57138;51.326;-0.068;2022-08-19T08:57:15;99683.34;;;21.30;62.05
69842;BME280;57138;51.326;-0.068;2022-08-19T08:59:46;99676.00;;;21.26;62.42
69842;BME280;57138;51.326;-0.068;2022-08-19T09:02:16;99673.84;;;21.23;62.34
69842;BME280;57138;51.326;-0.068;2022-08-19T09:04:42;99670.00;;;21.18;62.25
69842;BME280;57138;51.326;-0.068;2022-08-19T09:07:17;99680.88;;;21.08;61.91
69842;BME280;57138;51.326;-0.068;2022-08-19T09:09:52;99689.59;;;21.00;62.52
69842;BME280;57138;51.326;-0.068;2022-08-19T09:14:50;99676.00;;;21.15;62.93
69842;BME280;57138;51.326;-0.068;2022-08-19T09:17:19;99678.72;;;21.31;62.96
69842;BME280;57138;51.326;-0.068;2022-08-19T09:22:18;99660.72;;;21.66;62.84
69842;BME280;57138;51.326;-0.068;2022-08-19T09:24:48;99645.47;;;21.75;62.16
69842;BME280;57138;51.326;-0.068;2022-08-19T09:27:14;99672.56;;;22.16;62.12
69842;BME280;57138;51.326;-0.068;2022-08-19T09:29:40;99665.16;;;22.32;60.86
69842;BME280;57138;51.326;-0.068;2022-08-19T09:32:07;99673.81;;;22.44;60.38
69842;BME280;57138;51.326;-0.068;2022-08-19T09:34:32;99659.66;;;22.42;59.76
69842;BME280;57138;51.326;-0.068;2022-08-19T09:36:58;99670.22;;;22.49;59.70
69842;BME280;57138;51.326;-0.068;2022-08-19T09:39:26;99685.09;;;22.67;59.11
69842;BME280;57138;51.326;-0.068;2022-08-19T09:41:51;99674.47;;;22.71;58.79
69842;BME280;57138;51.326;-0.068;2022-08-19T09:44:18;99667.84;;;22.82;58.18
69842;BME280;57138;51.326;-0.068;2022-08-19T09:46:49;99631.88;;;22.80;57.93
69842;BME280;57138;51.326;-0.068;2022-08-19T09:49:17;99662.75;;;23.10;57.73
69842;BME280;57138;51.326;-0.068;2022-08-19T09:51:43;99649.72;;;23.02;56.92
69842;BME280;57138;51.326;-0.068;2022-08-19T09:54:09;99660.56;;;23.07;56.17
69842;BME280;57138;51.326;-0.068;2022-08-19T09:56:35;99667.50;;;22.94;56.36
69842;BME280;57138;51.326;-0.068;2022-08-19T09:59:01;99673.25;;;22.87;57.28
69842;BME280;57138;51.326;-0.068;2022-08-19T10:01:30;99674.38;;;22.86;57.10
69842;BME280;57138;51.326;-0.068;2022-08-19T10:03:58;99645.81;;;22.73;57.03
69842;BME280;57138;51.326;-0.068;2022-08-19T10:06:26;99670.22;;;22.94;56.86
69842;BME280;57138;51.326;-0.068;2022-08-19T10:08:55;99677.53;;;22.98;56.80
69842;BME280;57138;51.326;-0.068;2022-08-19T10:11:21;99677.47;;;23.09;56.49
69842;BME280;57138;51.326;-0.068;2022-08-19T10:13:47;99674.78;;;23.04;56.32
69842;BME280;57138;51.326;-0.068;2022-08-19T10:16:19;99679.94;;;23.05;56.49
69842;BME280;57138;51.326;-0.068;2022-08-19T10:18:46;99661.53;;;22.87;56.51
69842;BME280;57138;51.326;-0.068;2022-08-19T10:21:15;99686.59;;;22.89;56.80
69842;BME280;57138;51.326;-0.068;2022-08-19T10:23:44;99660.84;;;22.71;57.29
69842;BME280;57138;51.326;-0.068;2022-08-19T10:26:12;99678.22;;;22.80;57.50
69842;BME280;57138;51.326;-0.068;2022-08-19T10:28:38;99688.00;;;22.81;57.91
69842;BME280;57138;51.326;-0.068;2022-08-19T10:31:09;99690.72;;;22.86;57.63
69842;BME280;57138;51.326;-0.068;2022-08-19T10:33:36;99662.44;;;22.72;57.81
69842;BME280;57138;51.326;-0.068;2022-08-19T10:36:05;99688.28;;;22.85;57.83
69842;BME280;57138;51.326;-0.068;2022-08-19T10:38:32;99669.63;;;22.63;57.54
69842;BME280;57138;51.326;-0.068;2022-08-19T10:41:12;99687.91;;;22.57;57.70
69842;BME280;57138;51.326;-0.068;2022-08-19T10:43:39;99681.72;;;22.36;57.97
69842;BME280;57138;51.326;-0.068;2022-08-19T10:46:10;99697.84;;;22.32;58.41
69842;BME280;57138;51.326;-0.068;2022-08-19T10:48:37;99704.09;;;22.27;58.26
69842;BME280;57138;51.326;-0.068;2022-08-19T10:51:03;99698.69;;;22.12;58.72
69842;BME280;57138;51.326;-0.068;2022-08-19T10:53:47;99693.31;;;21.92;58.73
69842;BME280;57138;51.326;-0.068;2022-08-19T10:56:13;99714.00;;;21.93;59.33
69842;BME280;57138;51.326;-0.068;2022-08-19T10:58:57;99708.31;;;21.84;59.68
69842;BME280;57138;51.326;-0.068;2022-08-19T11:01:24;99712.41;;;21.76;60.41
69842;BME280;57138;51.326;-0.068;2022-08-19T11:03:50;99711.88;;;21.69;60.80
69842;BME280;57138;51.326;-0.068;2022-08-19T11:06:15;99699.63;;;21.61;61.07
69842;BME280;57138;51.326;-0.068;2022-08-19T11:08:41;99706.97;;;21.76;61.21
69842;BME280;57138;51.326;-0.068;2022-08-19T11:11:10;99708.31;;;21.84;60.82
69842;BME280;57138;51.326;-0.068;2022-08-19T11:13:38;99714.00;;;21.98;60.38
69842;BME280;57138;51.326;-0.068;2022-08-19T11:16:10;99712.84;;;22.09;60.00
69842;BME280;57138;51.326;-0.068;2022-08-19T11:18:38;99704.13;;;22.12;59.93
69842;BME280;57138;51.326;-0.068;2022-08-19T11:21:12;99698.09;;;22.20;59.47
69842;BME280;57138;51.326;-0.068;2022-08-19T11:23:38;99711.16;;;22.29;59.23
69842;BME280;57138;51.326;-0.068;2022-08-19T11:26:04;99704.59;;;22.30;58.45
69842;BME280;57138;51.326;-0.068;2022-08-19T11:28:30;99710.06;;;22.40;57.71
69842;BME280;57138;51.326;-0.068;2022-08-19T11:30:56;99709.50;;;22.43;57.13
69842;BME280;57138;51.326;-0.068;2022-08-19T11:33:22;99706.22;;;22.46;57.58
69842;BME280;57138;51.326;-0.068;2022-08-19T11:35:48;99709.19;;;22.50;57.27
69842;BME280;57138;51.326;-0.068;2022-08-19T11:38:14;99715.16;;;22.57;57.62
69842;BME280;57138;51.326;-0.068;2022-08-19T11:40:40;99716.50;;;22.59;57.16
69842;BME280;57138;51.326;-0.068;2022-08-19T11:43:07;99716.50;;;22.59;56.79
69842;BME280;57138;51.326;-0.068;2022-08-19T11:45:34;99692.06;;;22.44;56.54
69842;BME280;57138;51.326;-0.068;2022-08-19T11:48:01;99719.22;;;22.54;56.45
69842;BME280;57138;51.326;-0.068;2022-08-19T11:50:30;99695.34;;;22.36;56.30
69842;BME280;57138;51.326;-0.068;2022-08-19T11:52:57;99691.28;;;22.28;55.88
69842;BME280;57138;51.326;-0.068;2022-08-19T11:55:23;99684.22;;;22.22;56.52
69842;BME280;57138;51.326;-0.068;2022-08-19T11:57:49;99678.81;;;22.17;56.87
69842;BME280;57138;51.326;-0.068;2022-08-19T12:00:17;99683.44;;;22.16;56.42
69842;BME280;57138;51.326;-0.068;2022-08-19T12:02:43;99713.06;;;22.38;56.55
69842;BME280;57138;51.326;-0.068;2022-08-19T12:05:09;99687.78;;;22.22;56.02
69842;BME280;57138;51.326;-0.068;2022-08-19T12:07:35;99719.06;;;22.35;55.63
69842;BME280;57138;51.326;-0.068;2022-08-19T12:10:01;99667.13;;;22.06;55.88
69842;BME280;57138;51.326;-0.068;2022-08-19T12:12:32;99638.91;;;21.81;55.16
69842;BME280;57138;51.326;-0.068;2022-08-19T12:15:10;99716.63;;;22.34;54.77
69842;BME280;57138;51.326;-0.068;2022-08-19T12:17:37;99698.34;;;22.29;54.37
69842;BME280;57138;51.326;-0.068;2022-08-19T12:20:04;99710.56;;;22.47;53.50
69842;BME280;57138;51.326;-0.068;2022-08-19T12:22:30;99700.44;;;22.58;52.29
69842;BME280;57138;51.326;-0.068;2022-08-19T12:24:56;99698.47;;;22.64;51.63
69842;BME280;57138;51.326;-0.068;2022-08-19T12:27:21;99703.88;;;22.74;50.88
69842;BME280;57138;51.326;-0.068;2022-08-19T12:29:47;99707.13;;;22.76;50.38
69842;BME280;57138;51.326;-0.068;2022-08-19T12:32:12;99687.56;;;22.64;50.24
69842;BME280;57138;51.326;-0.068;2022-08-19T12:34:38;99701.69;;;22.76;49.84
69842;BME280;57138;51.326;-0.068;2022-08-19T12:37:05;99706.50;;;22.89;49.81
69842;BME280;57138;51.326;-0.068;2022-08-19T12:39:36;99713.00;;;22.93;49.21
69842;BME280;57138;51.326;-0.068;2022-08-19T12:42:04;99713.56;;;22.90;49.71
69842;BME280;57138;51.326;-0.068;2022-08-19T12:44:30;99711.44;;;22.82;48.79
69842;BME280;57138;51.326;-0.068;2022-08-19T12:46:58;99707.41;;;22.74;48.88
69842;BME280;57138;51.326;-0.068;2022-08-19T12:49:24;99713.09;;;22.83;49.49
69842;BME280;57138;51.326;-0.068;2022-08-19T12:51:50;99701.81;;;23.00;48.72
69842;BME280;57138;51.326;-0.068;2022-08-19T12:54:17;99704.25;;;23.36;48.83
69842;BME280;57138;51.326;-0.068;2022-08-19T12:56:42;99693.88;;;23.67;48.00
69842;BME280;57138;51.326;-0.068;2022-08-19T12:59:08;99703.03;;;24.06;45.95
69842;BME280;57138;51.326;-0.068;2022-08-19T13:01:36;99705.72;;;24.30;45.18
69842;BME280;57138;51.326;-0.068;2022-08-19T13:04:02;99693.94;;;24.54;45.04
69842;BME280;57138;51.326;-0.068;2022-08-19T13:06:28;99702.84;;;24.84;43.43
69842;BME280;57138;51.326;-0.068;2022-08-19T13:08:54;99700.16;;;25.17;42.13